Time;durP1;ratioP1;P1;durP2;ratioP2;P2;SDS_P1;SDS_P2;PMS_P1;PMS_P2;Temp;Humidity;BMP_temperature;BMP_pressure;BME280_temperature;BME280_humidity;BME280_pressure;Samples;Min_cycle;Max_cycle;Signal;HPM_P1;HPM_P2
2022/01/25 00:24:51;;;;;;;12.60;6.50;;;-0.70;99.90;;;0.24;100.00;99722.03;5034722;28;20612;-73
2022/01/25 00:27:41;;;;;;;13.90;7.20;;;-0.70;99.90;;;0.19;100.00;99724.84;5034848;28;20971;-73
2022/01/25 00:30:26;;;;;;;15.37;7.37;;;-0.80;99.90;;;0.17;100.00;99724.09;5034150;28;20467;-73
2022/01/25 00:32:56;;;;;;;15.40;7.27;;;-0.80;99.90;;;0.23;100.00;99717.78;5035374;28;20484;-73
2022/01/25 00:35:26;;;;;;;12.27;7.00;;;-0.70;99.90;;;0.20;100.00;99716.22;5036247;28;20816;-73
2022/01/25 00:37:56;;;;;;;13.17;6.17;;;-0.80;99.90;;;0.13;100.00;99717.44;5037071;28;20543;-73
2022/01/25 00:40:26;;;;;;;18.57;7.77;;;-0.90;99.90;;;0.14;100.00;99723.44;5032237;28;20470;-73
2022/01/25 00:42:56;;;;;;;16.63;6.80;;;-0.90;99.90;;;0.14;100.00;99720.84;5033950;28;20558;-73
2022/01/25 00:45:28;;;;;;;9.93;6.97;;;-0.80;99.90;;;0.12;100.00;99720.09;5033524;28;20464;-74
2022/01/25 00:48:02;;;;;;;12.67;7.30;;;-0.80;99.90;;;0.23;100.00;99716.06;5032750;28;20464;-73
2022/01/25 00:50:38;;;;;;;11.87;7.00;;;-0.70;99.90;;;0.22;100.00;99716.13;5033401;28;20866;-73
2022/01/25 00:56:01;;;;;;;11.73;7.10;;;-0.90;99.90;;;0.10;100.00;99716.78;5022610;28;20469;-73
2022/01/25 00:58:32;;;;;;;12.77;6.40;;;-0.90;99.90;;;0.14;100.00;99718.28;5035572;28;20495;-73
2022/01/25 01:01:02;;;;;;;9.73;6.67;;;-0.80;99.90;;;0.10;100.00;99729.63;5034861;28;20461;-73
2022/01/25 01:03:32;;;;;;;11.17;6.20;;;-0.90;99.90;;;0.12;100.00;99731.22;5033997;28;20473;-73
2022/01/25 01:06:04;;;;;;;9.70;6.63;;;-0.80;99.90;;;0.14;100.00;99723.44;5033789;28;20484;-73
2022/01/25 01:08:36;;;;;;;12.30;6.50;;;-0.80;99.90;;;0.05;100.00;99729.03;5032341;28;20913;-73
2022/01/25 01:11:09;;;;;;;12.17;6.83;;;-0.90;99.90;;;0.13;100.00;99732.88;5035114;28;20482;-73
2022/01/25 01:13:56;;;;;;;12.00;6.40;;;-0.80;99.90;;;0.19;100.00;99735.13;5032909;28;20508;-73
2022/01/25 01:30:33;;;;;;;11.87;7.03;;;-0.60;99.90;;;0.24;100.00;99743.44;5036393;28;20917;-73
2022/01/25 01:33:31;;;;;;;12.20;6.40;;;-0.70;99.90;;;0.30;100.00;99745.69;5032463;28;20605;-73
2022/01/25 01:41:54;;;;;;;13.00;6.90;;;-0.40;99.90;;;0.44;100.00;99744.94;5026999;28;20463;-73
2022/01/25 01:44:27;;;;;;;11.90;7.20;;;-0.30;99.90;;;0.49;100.00;99740.38;5036674;28;20472;-73
2022/01/25 01:47:05;;;;;;;11.67;6.33;;;-0.30;99.90;;;0.50;100.00;99739.47;5035602;28;20442;-73
2022/01/25 01:49:41;;;;;;;9.67;7.17;;;-0.30;99.90;;;0.55;100.00;99744.38;5032487;28;20465;-73
2022/01/25 01:52:12;;;;;;;9.00;6.47;;;-0.30;99.90;;;0.58;100.00;99739.06;5031197;28;21013;-73
2022/01/25 01:54:41;;;;;;;14.47;8.00;;;-0.30;99.90;;;0.56;100.00;99741.72;5032615;28;21088;-73
2022/01/25 01:57:12;;;;;;;16.50;8.03;;;-0.20;99.90;;;0.52;100.00;99743.63;5033402;28;20923;-73
2022/01/25 01:59:42;;;;;;;11.40;6.93;;;-0.40;99.90;;;0.57;100.00;99732.25;5032938;28;20564;-74
2022/01/25 02:02:11;;;;;;;11.17;7.43;;;-0.30;99.90;;;0.56;100.00;99736.56;5031355;28;20461;-74
2022/01/25 02:04:42;;;;;;;10.23;6.30;;;-0.40;99.90;;;0.57;100.00;99737.41;5033570;28;20534;-73
2022/01/25 02:07:12;;;;;;;11.70;6.93;;;-0.30;99.90;;;0.63;100.00;99737.88;5031287;28;20948;-73
2022/01/25 02:09:42;;;;;;;9.23;6.33;;;-0.30;99.90;;;0.68;100.00;99735.91;5034528;28;20550;-73
2022/01/25 02:12:13;;;;;;;13.27;7.90;;;-0.20;99.90;;;0.72;100.00;99731.44;5033361;28;20506;-73
2022/01/25 02:14:42;;;;;;;16.70;8.27;;;-0.10;99.90;;;0.71;100.00;99725.44;5032085;28;21012;-73
2022/01/25 02:17:26;;;;;;;11.70;7.33;;;-0.10;99.90;;;0.74;100.00;99724.44;5031695;28;20563;-73
2022/01/25 02:22:56;;;;;;;13.80;7.07;;;0.00;99.90;;;0.82;100.00;99704.25;5034288;28;20942;-73
2022/01/25 02:25:26;;;;;;;13.97;8.77;;;0.00;99.90;;;0.89;100.00;99710.72;5033359;28;20533;-74
2022/01/25 02:27:56;;;;;;;14.10;7.67;;;0.10;99.90;;;0.91;100.00;99708.91;5032034;28;20560;-73
2022/01/25 02:30:26;;;;;;;10.97;7.33;;;0.20;99.90;;;0.94;100.00;99708.72;5034599;28;20546;-73
2022/01/25 02:32:56;;;;;;;12.20;7.23;;;0.20;99.90;;;0.97;100.00;99711.16;5034800;28;21283;-73
2022/01/25 02:35:27;;;;;;;12.00;7.30;;;0.20;99.90;;;1.01;100.00;99704.88;5032524;28;20507;-73
2022/01/25 02:37:56;;;;;;;15.00;7.70;;;0.20;99.90;;;1.01;100.00;99699.72;5032292;28;20487;-73
2022/01/25 02:40:26;;;;;;;14.90;7.60;;;0.20;99.90;;;1.05;100.00;99698.66;5031771;28;20618;-73
2022/01/25 02:42:56;;;;;;;13.63;7.80;;;0.30;99.90;;;1.04;100.00;99711.63;5032155;28;20667;-73
2022/01/25 02:45:32;;;;;;;11.10;7.00;;;0.30;99.90;;;1.06;100.00;99700.31;5034036;28;20464;-74
2022/01/25 02:50:52;;;;;;;12.33;7.67;;;0.30;99.90;;;1.10;100.00;99706.97;5036511;28;20468;-73
2022/01/25 02:53:22;;;;;;;19.30;7.73;;;0.40;99.90;;;1.12;100.00;99705.13;5037269;28;20495;-73
2022/01/25 02:55:52;;;;;;;11.60;7.27;;;0.40;99.90;;;1.14;100.00;99708.44;5035930;28;20515;-73
2022/01/25 02:58:23;;;;;;;13.60;7.13;;;0.30;99.90;;;1.13;100.00;99706.78;5035649;28;20468;-73
2022/01/25 03:00:54;;;;;;;11.70;6.77;;;0.30;99.90;;;1.15;100.00;99704.94;5030854;28;20575;-73
2022/01/25 03:03:23;;;;;;;14.23;8.10;;;0.30;99.90;;;1.17;100.00;99713.44;5035069;28;20468;-73
2022/01/25 03:05:55;;;;;;;10.97;7.20;;;0.30;99.90;;;1.15;100.00;99704.94;5036419;28;20517;-73
2022/01/25 03:08:26;;;;;;;13.20;7.10;;;0.30;99.90;;;1.18;100.00;99704.75;5034472;28;20512;-74
2022/01/25 03:10:56;;;;;;;12.60;8.30;;;0.30;99.90;;;1.18;100.00;99703.97;5034406;28;20824;-73
2022/01/25 03:13:31;;;;;;;11.63;6.80;;;0.30;99.90;;;1.17;100.00;99694.56;5036037;28;20479;-73
2022/01/25 03:16:04;;;;;;;16.27;8.00;;;0.20;99.90;;;1.14;100.00;99698.16;5035871;28;20523;-73
2022/01/25 03:18:44;;;;;;;12.47;7.40;;;0.20;99.90;;;1.20;100.00;99700.38;5035657;28;20498;-73
2022/01/25 03:21:33;;;;;;;18.40;8.33;;;0.30;99.90;;;1.25;100.00;99705.28;5033708;28;20468;-73
2022/01/25 03:24:10;;;;;;;11.50;6.77;;;0.40;99.90;;;1.30;100.00;99700.66;5033143;28;20468;-73
2022/01/25 03:26:40;;;;;;;13.50;7.73;;;0.40;99.90;;;1.29;100.00;99701.56;5033082;28;20559;-73
2022/01/25 03:29:10;;;;;;;13.93;7.50;;;0.40;99.90;;;1.31;100.00;99699.75;5037610;28;20466;-73
2022/01/25 03:31:41;;;;;;;13.23;6.90;;;0.40;99.90;;;1.34;100.00;99684.94;5037319;28;20455;-73
2022/01/25 03:34:11;;;;;;;9.53;6.70;;;0.50;99.90;;;1.37;100.00;99687.34;5032659;28;20498;-73
2022/01/25 03:36:42;;;;;;;14.47;6.63;;;0.60;99.90;;;1.37;100.00;99684.78;5032673;28;20546;-73
2022/01/25 03:39:11;;;;;;;10.97;7.00;;;0.60;99.90;;;1.37;100.00;99682.19;5033386;28;20823;-73
2022/01/25 03:41:41;;;;;;;11.73;6.60;;;0.60;99.90;;;1.39;100.00;99682.91;5034310;28;20552;-73
2022/01/25 03:44:12;;;;;;;13.50;7.43;;;0.60;99.90;;;1.42;100.00;99682.75;5032534;28;20494;-73
2022/01/25 03:46:56;;;;;;;13.20;6.93;;;0.70;99.90;;;1.44;100.00;99685.25;5035929;28;20585;-74
2022/01/25 03:52:16;;;;;;;13.67;7.13;;;0.60;99.90;;;1.48;100.00;99677.25;5035735;28;20471;-73
2022/01/25 03:54:48;;;;;;;15.77;7.90;;;0.70;99.90;;;1.49;100.00;99676.31;5034504;28;21126;-74
2022/01/25 03:57:18;;;;;;;10.53;6.50;;;0.70;99.90;;;1.52;100.00;99683.06;5032844;28;20473;-73
2022/01/25 03:59:49;;;;;;;10.20;6.83;;;0.70;99.90;;;1.55;100.00;99687.19;5031691;28;22417;-74
2022/01/25 04:02:18;;;;;;;12.97;6.57;;;0.80;99.90;;;1.55;100.00;99682.03;5033608;28;20457;-73
2022/01/25 04:04:51;;;;;;;12.90;6.73;;;0.80;99.90;;;1.55;100.00;99687.19;5030526;28;20478;-74
2022/01/25 04:07:31;;;;;;;10.10;7.10;;;0.80;99.90;;;1.53;100.00;99680.38;5037637;28;20979;-73
2022/01/25 04:10:01;;;;;;;14.27;7.37;;;0.80;99.90;;;1.59;100.00;99679.19;5037205;28;20455;-74
2022/01/25 04:12:30;;;;;;;11.00;6.77;;;0.80;99.90;;;1.64;100.00;99682.31;5035890;28;20470;-73
2022/01/25 04:15:00;;;;;;;10.27;6.60;;;0.90;99.90;;;1.63;100.00;99687.59;5035511;28;21009;-73
2022/01/25 04:17:29;;;;;;;12.53;7.73;;;0.90;99.90;;;1.66;100.00;99674.50;5037310;28;20506;-74
2022/01/25 04:20:13;;;;;;;11.27;7.10;;;0.90;99.90;;;1.68;100.00;99682.97;5036431;28;20471;-73
2022/01/25 04:25:31;;;;;;;10.33;6.50;;;0.90;99.90;;;1.66;100.00;99674.50;5034460;28;20465;-74
2022/01/25 04:28:00;;;;;;;12.33;6.57;;;0.90;99.90;;;1.65;100.00;99667.69;5033407;28;20494;-74
2022/01/25 04:30:31;;;;;;;14.30;8.07;;;0.90;99.90;;;1.67;100.00;99661.50;5036507;28;21204;-73
2022/01/25 04:33:04;;;;;;;18.37;7.67;;;0.90;99.90;;;1.70;100.00;99655.38;5036927;28;20963;-74
2022/01/25 04:35:55;;;;;;;10.53;6.50;;;0.90;99.90;;;1.68;100.00;99654.63;5033070;28;20872;-74
2022/01/25 04:49:37;;;;;;;36.70;10.30;;;1.10;99.90;;;1.81;100.00;99648.63;5032506;28;20456;-73
2022/01/25 04:52:12;;;;;;;17.23;7.43;;;1.10;99.90;;;1.83;100.00;99653.69;5036160;28;20867;-74
2022/01/25 04:54:51;;;;;;;17.00;8.13;;;1.10;99.90;;;1.87;100.00;99658.59;5036726;28;20599;-74
2022/01/25 04:57:34;;;;;;;29.67;7.43;;;1.10;99.90;;;1.86;100.00;99672.41;5036020;28;20452;-74
2022/01/25 05:00:10;;;;;;;21.97;7.60;;;1.10;99.90;;;1.85;100.00;99669.91;5036800;28;20499;-74
2022/01/25 05:02:47;;;;;;;23.40;8.90;;;1.10;99.90;;;1.85;100.00;99672.47;5037750;28;20476;-73
2022/01/25 05:05:27;;;;;;;14.93;7.23;;;1.10;99.90;;;1.86;100.00;99676.72;5038413;28;20484;-73
2022/01/25 05:08:03;;;;;;;22.97;7.43;;;1.10;99.90;;;1.86;100.00;99672.41;5036688;28;20877;-74
2022/01/25 05:10:47;;;;;;;19.43;6.90;;;1.10;99.90;;;1.88;100.00;99674.88;5036901;28;20502;-74
2022/01/25 05:13:36;;;;;;;37.03;7.20;;;1.10;99.90;;;1.86;100.00;99672.41;5033173;28;20586;-74
2022/01/25 05:16:14;;;;;;;18.47;7.70;;;1.10;99.90;;;1.86;100.00;99674.97;5035124;28;20588;-74
2022/01/25 05:18:46;;;;;;;19.43;6.47;;;1.10;99.90;;;1.89;100.00;99671.38;5032623;28;20914;-73
2022/01/25 05:24:04;;;;;;;26.30;8.47;;;1.10;99.90;;;1.87;100.00;99668.06;5029969;28;20517;-73
2022/01/25 05:26:35;;;;;;;16.63;6.80;;;1.10;99.90;;;1.86;100.00;99672.41;5034929;28;20921;-75
2022/01/25 05:29:05;;;;;;;15.97;6.43;;;1.20;99.90;;;1.85;100.00;99669.91;5035551;28;20463;-72
2022/01/25 05:31:35;;;;;;;19.55;9.05;;;1.20;99.90;;;1.85;100.00;99670.72;5037320;28;20455;-72
2022/01/25 05:34:07;;;;;;;21.93;8.00;;;1.10;99.90;;;1.85;100.00;99669.91;5037934;28;20224;-73
2022/01/25 05:36:38;;;;;;;18.27;8.20;;;1.20;99.90;;;1.86;100.00;99674.16;5039139;28;20484;-74
2022/01/25 05:39:12;;;;;;;13.73;7.70;;;1.10;99.90;;;1.85;100.00;99672.47;5038862;28;20490;-73
2022/01/25 05:41:45;;;;;;;24.27;7.50;;;1.10;99.90;;;1.85;100.00;99675.06;5039570;28;20479;-74
2022/01/25 05:44:37;;;;;;;22.33;9.13;;;1.10;99.90;;;1.84;100.00;99671.66;5037600;28;20818;-73
2022/01/25 05:47:13;;;;;;;17.63;7.77;;;1.00;99.90;;;1.83;100.00;99671.75;5035714;28;20452;-73
2022/01/25 05:49:47;;;;;;;13.10;6.77;;;1.00;99.90;;;1.80;100.00;99682.25;5038766;28;20978;-74
2022/01/25 05:52:17;;;;;;;20.20;7.60;;;1.00;99.90;;;1.78;100.00;99673.75;5038730;28;20479;-73
2022/01/25 05:54:48;;;;;;;25.17;6.97;;;0.90;99.90;;;1.72;100.00;99668.97;5038423;28;20491;-73
2022/01/25 05:57:20;;;;;;;25.47;7.17;;;0.80;99.90;;;1.75;100.00;99668.78;5038474;28;20467;-73
2022/01/25 05:59:49;;;;;;;15.20;6.30;;;1.00;99.90;;;1.67;100.00;99673.56;5034185;28;20443;-73
2022/01/25 06:02:21;;;;;;;33.93;7.90;;;1.00;99.90;;;1.62;100.00;99675.59;5037992;28;20999;-73
2022/01/25 06:04:52;;;;;;;26.83;7.90;;;1.00;99.90;;;1.62;100.00;99678.19;5039336;28;20596;-73
2022/01/25 06:07:22;;;;;;;29.23;7.83;;;1.00;99.90;;;1.65;100.00;99678.00;5038253;28;20548;-74
2022/01/25 06:09:52;;;;;;;24.73;6.23;;;0.90;99.90;;;1.66;100.00;99679.66;5036409;28;20447;-73
2022/01/25 06:12:24;;;;;;;12.37;6.23;;;0.90;99.90;;;1.68;100.00;99677.81;5039087;28;20563;-73
2022/01/25 06:14:53;;;;;;;21.27;5.97;;;0.90;99.90;;;1.65;100.00;99683.16;5038574;28;20469;-74
2022/01/25 06:17:24;;;;;;;25.20;6.87;;;0.90;99.90;;;1.65;100.00;99684.00;5039775;28;20443;-73
2022/01/25 06:19:54;;;;;;;14.27;7.10;;;0.90;99.90;;;1.57;100.00;99682.75;5037519;28;20966;-73
2022/01/25 06:22:23;;;;;;;13.30;6.03;;;0.90;99.90;;;1.58;100.00;99687.00;5041081;28;20974;-73
2022/01/25 06:24:53;;;;;;;20.33;6.93;;;0.80;99.90;;;1.53;100.00;99682.94;5041368;28;20479;-73
2022/01/25 06:27:24;;;;;;;19.60;6.47;;;0.70;99.90;;;1.52;100.00;99680.47;5041827;28;20451;-74
2022/01/25 06:29:53;;;;;;;29.20;7.47;;;0.80;99.90;;;1.54;100.00;99678.63;5039786;28;20452;-73
2022/01/25 06:32:23;;;;;;;17.90;6.10;;;0.70;99.90;;;1.53;100.00;99682.94;5039119;28;20449;-73
2022/01/25 06:34:52;;;;;;;33.83;7.20;;;0.70;99.90;;;1.59;100.00;99675.78;5038182;28;20952;-73
2022/01/25 06:37:22;;;;;;;26.90;6.47;;;0.70;99.90;;;1.56;100.00;99679.38;5039697;28;20451;-74
2022/01/25 06:39:51;;;;;;;15.63;6.63;;;0.70;99.90;;;1.61;100.00;99676.50;5037571;28;20968;-74
2022/01/25 06:42:22;;;;;;;25.73;6.93;;;0.80;99.90;;;1.60;100.00;99683.41;5037478;28;20454;-74
2022/01/25 06:44:57;;;;;;;26.80;8.47;;;0.80;99.90;;;1.59;100.00;99683.53;5038415;28;20942;-73
2022/01/25 06:47:26;;;;;;;21.20;6.57;;;0.80;99.90;;;1.61;100.00;99679.09;5038243;28;20453;-73
2022/01/25 06:49:57;;;;;;;29.30;6.10;;;1.00;99.90;;;1.60;100.00;99678.25;5037415;28;20449;-73
2022/01/25 06:52:26;;;;;;;14.10;6.10;;;0.90;99.90;;;1.58;100.00;99684.44;5036747;28;20455;-74
2022/01/25 06:54:55;;;;;;;14.33;6.40;;;0.80;99.90;;;1.57;100.00;99675.03;5039176;28;20501;-74
2022/01/25 06:57:25;;;;;;;13.47;6.80;;;0.70;99.90;;;1.42;100.00;99682.75;5037888;28;20478;-74
2022/01/25 06:59:56;;;;;;;23.73;6.27;;;0.60;99.90;;;1.38;100.00;99673.56;5039053;28;20495;-74
2022/01/25 07:02:27;;;;;;;21.50;7.30;;;0.60;99.90;;;1.42;100.00;99671.63;5041571;28;20459;-74
2022/01/25 07:04:57;;;;;;;21.67;7.07;;;0.70;99.90;;;1.46;100.00;99676.50;5042101;28;20483;-74
2022/01/25 07:07:26;;;;;;;22.77;6.70;;;0.70;99.90;;;1.46;100.00;99665.34;5042115;28;20463;-73
2022/01/25 07:09:55;;;;;;;12.27;7.17;;;0.70;99.90;;;1.47;100.00;99664.44;5042648;28;20484;-73
2022/01/25 07:12:26;;;;;;;27.30;7.53;;;0.70;99.90;;;1.41;100.00;99663.06;5040004;28;20498;-73
2022/01/25 07:14:56;;;;;;;27.23;7.13;;;0.70;99.90;;;1.42;100.00;99661.31;5041608;28;20978;-74
2022/01/25 07:17:26;;;;;;;19.00;6.83;;;0.70;99.90;;;1.39;100.00;99654.56;5041776;28;20500;-74
2022/01/25 07:19:55;;;;;;;28.07;5.77;;;0.60;99.90;;;1.38;100.00;99670.16;5041206;28;20453;-73
2022/01/25 07:22:25;;;;;;;9.00;4.63;;;0.70;99.90;;;1.37;100.00;99666.72;5041575;28;20496;-74
2022/01/25 07:24:54;;;;;;;27.90;5.43;;;0.60;99.90;;;1.34;100.00;99659.19;5040164;28;20453;-74
2022/01/25 07:27:23;;;;;;;15.20;5.30;;;0.80;99.90;;;1.32;100.00;99663.59;5041339;28;20968;-73
2022/01/25 07:29:53;;;;;;;25.90;5.20;;;0.70;99.90;;;1.22;100.00;99675.34;5040308;28;20467;-73
2022/01/25 07:32:24;;;;;;;16.60;5.30;;;0.60;99.90;;;1.22;100.00;99674.50;5041852;28;20816;-73
2022/01/25 07:35:05;;;;;;;15.40;5.57;;;0.60;99.90;;;1.16;100.00;99675.69;5041931;28;20444;-74
2022/01/25 07:37:46;;;;;;;14.17;4.70;;;0.60;99.90;;;1.15;100.00;99668.88;5039441;28;20450;-74
2022/01/25 07:40:16;;;;;;;14.07;5.40;;;0.50;99.90;;;1.08;100.00;99672.72;5041494;28;20450;-73
2022/01/25 07:42:46;;;;;;;24.03;5.43;;;0.30;99.90;;;1.16;100.00;99673.13;5042445;28;20456;-73
2022/01/25 07:45:34;;;;;;;14.47;5.17;;;0.40;99.90;;;1.18;100.00;99667.91;5038536;28;20451;-74
2022/01/25 07:48:14;;;;;;;33.23;5.60;;;0.50;99.90;;;1.08;100.00;99662.41;5039947;28;20450;-74
2022/01/25 07:50:44;;;;;;;13.50;5.00;;;0.40;99.90;;;1.01;100.00;99667.09;5040215;28;20537;-74
2022/01/25 07:53:14;;;;;;;15.03;4.90;;;0.30;99.90;;;0.97;100.00;99660.44;5041178;28;20458;-73
2022/01/25 07:55:42;;;;;;;21.57;5.67;;;0.20;99.90;;;0.96;100.00;99658.81;5040303;28;20457;-73
2022/01/25 07:58:16;;;;;;;15.73;4.73;;;0.30;99.90;;;0.99;100.00;99668.09;5040589;28;20465;-74
2022/01/25 08:00:48;;;;;;;6.30;4.37;;;0.30;99.90;;;0.99;100.00;99662.94;5040893;28;20454;-74
2022/01/25 08:03:22;;;;;;;6.03;4.67;;;0.30;99.90;;;0.99;100.00;99662.94;5040883;28;21031;-74
2022/01/25 08:06:12;;;;;;;9.73;3.80;;;0.20;99.90;;;0.97;100.00;99667.38;5000739;28;20476;-74
2022/01/25 08:08:47;;;;;;;10.60;4.20;;;0.20;99.90;;;0.93;100.00;99664.13;4999070;28;20970;-74
2022/01/25 08:11:40;;;;;;;8.20;4.30;;;0.10;99.90;;;1.01;100.00;99666.25;4945690;28;20445;-74
2022/01/25 08:14:16;;;;;;;9.50;4.43;;;0.20;99.90;;;1.01;100.00;99669.66;4902390;29;21088;-74
2022/01/25 08:16:57;;;;;;;7.97;4.77;;;0.30;99.90;;;1.05;100.00;99672.91;4943065;29;20509;-73
2022/01/25 08:19:31;;;;;;;6.17;4.10;;;0.30;99.90;;;1.05;100.00;99680.63;4942133;29;20444;-74
2022/01/25 08:22:24;;;;;;;9.83;4.07;;;0.30;99.90;;;1.01;100.00;99684.28;4928534;29;20968;-74
2022/01/25 08:25:08;;;;;;;6.87;4.10;;;0.40;99.90;;;0.98;100.00;99687.03;4872080;29;20456;-74
2022/01/25 08:27:59;;;;;;;4.73;3.67;;;0.30;99.90;;;0.88;100.00;99694.44;4867785;29;20514;-74
2022/01/25 08:30:37;;;;;;;5.90;3.70;;;0.10;99.90;;;0.88;100.00;99701.34;4872140;29;20469;-74
2022/01/25 08:33:32;;;;;;;8.90;4.50;;;0.10;99.90;;;0.84;100.00;99705.00;4835214;29;20941;-74
2022/01/25 08:36:06;;;;;;;6.77;4.30;;;0.20;99.90;;;0.87;100.00;99704.81;4839532;29;20519;-74
2022/01/25 08:38:49;;;;;;;8.10;4.97;;;0.10;99.90;;;0.86;100.00;99703.19;4864152;29;20459;-73
2022/01/25 08:41:21;;;;;;;10.20;4.93;;;0.10;99.90;;;0.87;100.00;99702.25;4873398;29;20462;-74
2022/01/25 08:44:05;;;;;;;8.67;4.43;;;0.10;99.90;;;0.86;100.00;99703.19;4915913;29;20443;-74
2022/01/25 08:46:43;;;;;;;19.10;4.30;;;0.10;99.90;;;0.93;100.00;99712.22;4922906;29;20454;-74
2022/01/25 08:49:15;;;;;;;10.83;4.50;;;0.10;99.90;;;0.94;100.00;99711.28;4967117;28;20455;-74
2022/01/25 08:51:52;;;;;;;14.23;4.80;;;0.10;99.90;;;0.96;100.00;99705.16;4976679;28;20492;-73
2022/01/25 08:54:48;;;;;;;9.73;4.67;;;0.10;99.90;;;1.01;100.00;99708.28;4920160;29;20581;-74
2022/01/25 08:57:37;;;;;;;7.67;4.63;;;0.10;99.90;;;0.96;100.00;99705.16;4977791;28;20506;-74
2022/01/25 09:00:23;;;;;;;8.87;4.70;;;0.10;99.90;;;1.02;100.00;99693.69;4979495;28;20458;-74
2022/01/25 09:02:53;;;;;;;12.33;5.10;;;0.20;99.90;;;1.04;100.00;99691.03;4980905;28;20462;-74
2022/01/25 09:05:26;;;;;;;20.33;5.10;;;0.20;99.90;;;1.04;100.00;99691.88;4978957;28;20495;-74
2022/01/25 09:07:58;;;;;;;12.73;5.97;;;0.30;99.90;;;1.07;100.00;99698.56;4980171;28;20482;-74
2022/01/25 09:10:27;;;;;;;12.90;5.53;;;0.40;99.90;;;1.10;100.00;99699.25;4979714;28;20492;-74
2022/01/25 09:12:57;;;;;;;11.30;5.13;;;0.40;99.90;;;1.14;100.00;99700.72;4979537;28;20470;-74
2022/01/25 09:15:28;;;;;;;9.60;4.77;;;0.30;99.90;;;1.16;100.00;99696.31;4979853;28;20512;-73
2022/01/25 09:17:57;;;;;;;12.60;4.67;;;0.30;99.90;;;1.20;100.00;99702.94;4980767;28;21039;-73
2022/01/25 09:20:26;;;;;;;10.47;4.90;;;0.60;99.90;;;1.16;100.00;99704.03;4979080;28;20978;-73
2022/01/25 09:22:57;;;;;;;7.40;4.30;;;0.60;99.90;;;1.19;100.00;99705.59;4980109;28;20455;-74
2022/01/25 09:25:30;;;;;;;12.03;4.97;;;0.50;99.90;;;1.22;100.00;99706.25;4979013;28;20459;-74
2022/01/25 09:28:01;;;;;;;12.30;4.90;;;0.60;99.90;;;1.24;100.00;99707.00;4979121;28;20469;-73
2022/01/25 09:30:31;;;;;;;13.30;4.80;;;0.50;99.90;;;1.28;100.00;99705.94;5004301;28;20493;-74
2022/01/25 09:33:01;;;;;;;8.90;4.33;;;0.70;99.90;;;1.27;100.00;99714.56;5041292;28;20486;-74
2022/01/25 09:35:31;;;;;;;8.70;5.70;;;0.60;99.90;;;1.31;100.00;99713.47;5040386;28;20522;-73
2022/01/25 09:38:02;;;;;;;16.73;5.97;;;0.60;99.90;;;1.34;100.00;99710.72;5039666;28;20581;-74
2022/01/25 09:40:32;;;;;;;9.80;5.50;;;0.60;99.90;;;1.33;100.00;99703.06;5039187;28;20475;-74
2022/01/25 09:43:06;;;;;;;27.80;5.97;;;0.50;99.90;;;1.28;100.00;99705.94;5039420;28;20771;-74
2022/01/25 09:45:38;;;;;;;14.13;6.30;;;0.50;99.90;;;1.29;100.00;99704.97;5038818;28;20463;-73
2022/01/25 09:48:09;;;;;;;12.63;5.47;;;0.50;99.90;;;1.33;100.00;99703.06;5039085;28;20454;-74
2022/01/25 09:50:40;;;;;;;14.10;6.50;;;0.50;99.90;;;1.35;100.00;99707.22;5035965;28;20451;-74
2022/01/25 09:53:11;;;;;;;19.13;6.50;;;0.60;99.90;;;1.36;100.00;99708.03;5034403;28;20464;-74
2022/01/25 09:55:46;;;;;;;10.40;6.43;;;0.60;99.90;;;1.41;100.00;99717.19;5034404;28;20451;-73
2022/01/25 09:58:15;;;;;;;13.87;6.60;;;0.60;99.90;;;1.45;100.00;99718.66;5033730;28;20495;-73
2022/01/25 10:00:49;;;;;;;9.83;6.20;;;0.90;99.90;;;1.43;100.00;99725.63;5035288;28;20485;-74
2022/01/25 10:03:25;;;;;;;16.23;6.87;;;0.80;99.90;;;1.45;100.00;99712.69;5036017;28;20534;-73
2022/01/25 10:05:58;;;;;;;12.00;7.60;;;0.70;99.90;;;1.44;100.00;99719.56;5034322;28;20491;-73
2022/01/25 10:08:33;;;;;;;15.90;7.47;;;0.70;99.90;;;1.51;100.00;99714.91;5033320;28;20462;-73
2022/01/25 10:11:06;;;;;;;12.87;6.97;;;0.90;99.90;;;1.50;100.00;99719.22;5034816;28;20451;-74
2022/01/25 10:13:38;;;;;;;16.87;6.73;;;0.80;99.90;;;1.47;100.00;99716.81;5034837;28;20474;-73
2022/01/25 10:16:09;;;;;;;16.93;7.60;;;0.80;99.90;;;1.49;100.00;99720.13;5034692;28;20558;-74
2022/01/25 10:18:43;;;;;;;12.80;7.23;;;0.80;99.90;;;1.49;100.00;99721.91;5034756;28;20992;-73
2022/01/25 10:21:19;;;;;;;15.43;7.60;;;0.70;99.90;;;1.55;100.00;99718.13;5035281;28;20491;-73
2022/01/25 10:24:27;;;;;;;15.33;8.30;;;0.70;99.90;;;1.61;100.00;99718.59;5034657;28;20556;-73
2022/01/25 10:27:01;;;;;;;14.57;7.90;;;0.70;99.90;;;1.64;100.00;99717.56;5035576;28;20455;-74
2022/01/25 10:29:34;;;;;;;11.87;6.67;;;0.90;99.90;;;1.63;100.00;99713.38;5034411;28;20459;-73
2022/01/25 10:32:07;;;;;;;15.77;7.73;;;0.80;99.90;;;1.64;100.00;99713.25;5035013;28;20924;-73
2022/01/25 10:34:43;;;;;;;14.33;7.60;;;0.80;99.90;;;1.68;100.00;99712.16;5038175;28;20495;-73
2022/01/25 10:37:17;;;;;;;14.63;7.63;;;0.90;99.90;;;1.68;100.00;99708.75;5039354;28;20491;-73
2022/01/25 10:39:52;;;;;;;11.50;7.00;;;0.90;99.90;;;1.63;100.00;99705.63;5038831;28;20908;-73
2022/01/25 10:42:26;;;;;;;15.53;6.80;;;0.80;99.90;;;1.63;100.00;99710.78;5038251;28;20448;-73
2022/01/25 10:45:02;;;;;;;11.23;6.90;;;0.90;99.90;;;1.66;100.00;99708.03;5039363;28;20450;-73
2022/01/25 10:47:40;;;;;;;11.33;6.83;;;0.80;99.90;;;1.67;100.00;99712.22;5039199;28;21141;-73
2022/01/25 10:50:17;;;;;;;12.77;8.00;;;0.90;99.90;;;1.67;100.00;99720.81;5038752;28;20992;-74
2022/01/25 10:52:48;;;;;;;14.07;8.40;;;0.90;99.90;;;1.73;100.00;99720.47;5037503;28;20491;-74
2022/01/25 10:55:20;;;;;;;12.03;6.80;;;0.90;99.90;;;1.80;100.00;99718.34;5038819;28;20452;-73
2022/01/25 10:57:57;;;;;;;15.83;7.77;;;1.00;99.90;;;1.84;100.00;99717.25;5037643;28;21036;-74
2022/01/25 11:00:34;;;;;;;10.60;6.80;;;1.30;99.90;;;1.81;100.00;99707.09;5036261;28;20453;-73
2022/01/25 11:03:06;;;;;;;15.13;6.80;;;1.40;99.90;;;1.87;100.00;99711.91;5037777;28;20457;-73
2022/01/25 11:05:39;;;;;;;12.90;7.57;;;1.40;99.90;;;1.90;100.00;99699.66;5038531;28;20497;-74
2022/01/25 11:08:15;;;;;;;13.90;8.30;;;1.20;99.90;;;1.92;100.00;99694.41;5037954;28;20459;-73
2022/01/25 11:10:52;;;;;;;11.40;7.17;;;1.10;99.90;;;1.94;100.00;99700.31;5040668;28;20497;-73
2022/01/25 11:13:35;;;;;;;14.40;7.80;;;1.20;99.90;;;2.02;100.00;99698.09;5040298;28;20539;-73
2022/01/25 11:16:07;;;;;;;16.17;8.70;;;1.40;99.90;;;2.09;100.00;99704.53;5042185;28;20476;-74
2022/01/25 11:18:39;;;;;;;16.90;8.50;;;1.60;99.90;;;2.15;100.00;99704.19;5041256;28;20594;-73
2022/01/25 11:21:12;;;;;;;14.40;8.77;;;1.70;99.90;;;2.12;100.00;99699.19;5041744;28;20443;-73
2022/01/25 11:23:44;;;;;;;13.57;7.57;;;1.60;99.90;;;2.12;100.00;99699.19;5040516;28;20950;-73
2022/01/25 11:26:16;;;;;;;15.80;9.27;;;1.70;99.90;;;2.19;100.00;99699.63;5041859;28;20510;-74
2022/01/25 11:28:46;;;;;;;18.03;9.33;;;1.60;99.90;;;2.19;100.00;99684.97;5042092;28;20464;-74
2022/01/25 11:31:24;;;;;;;13.90;8.20;;;1.60;99.90;;;2.21;100.00;99688.31;5041948;28;20453;-73
2022/01/25 11:33:57;;;;;;;18.70;8.77;;;1.50;99.90;;;2.24;100.00;99692.47;5041193;28;20457;-74
2022/01/25 11:36:31;;;;;;;16.97;7.93;;;1.60;99.90;;;2.26;100.00;99685.44;5042246;28;20452;-74
2022/01/25 11:39:02;;;;;;;20.20;8.93;;;1.60;99.90;;;2.27;100.00;99687.09;5041008;28;20592;-74
2022/01/25 11:41:36;;;;;;;13.83;7.73;;;1.60;99.90;;;2.32;100.00;99685.91;5041586;28;20447;-74
2022/01/25 11:44:10;;;;;;;18.23;8.97;;;1.80;99.90;;;2.35;100.00;99685.72;5041226;28;20472;-73
2022/01/25 11:46:43;;;;;;;21.03;9.17;;;1.70;99.90;;;2.36;100.00;99686.56;5041556;28;20878;-74
2022/01/25 11:49:17;;;;;;;18.57;9.27;;;1.70;99.90;;;2.36;100.00;99684.78;5039792;28;20461;-74
2022/01/25 11:52:04;;;;;;;22.00;9.83;;;1.70;99.90;;;2.43;100.00;99683.47;5037280;28;20504;-73
2022/01/25 11:54:37;;;;;;;27.37;10.63;;;1.80;99.90;;;2.46;100.00;99683.28;5037947;28;20452;-74
2022/01/25 11:57:47;;;;;;;17.07;9.23;;;1.90;99.90;;;2.50;100.00;99684.75;5037598;28;20477;-74
2022/01/25 12:00:17;;;;;;;16.63;9.17;;;2.00;99.90;;;2.47;100.00;99684.94;5037562;28;20442;-72